createdAt,value
2023-02-09T00:02:18.612Z,-7.21
2023-02-09T00:04:46.580Z,-7.26
2023-02-09T00:07:14.457Z,-7.29
2023-02-09T00:09:42.428Z,-7.32
2023-02-09T00:12:28.833Z,-7.35
2023-02-09T00:14:56.957Z,-7.38
2023-02-09T00:17:25.044Z,-7.41
2023-02-09T00:19:55.922Z,-7.42
2023-02-09T00:22:23.901Z,-7.43
2023-02-09T00:24:51.997Z,-7.43
2023-02-09T00:27:20.276Z,-7.43
2023-02-09T00:29:48.348Z,-7.45
2023-02-09T00:32:18.336Z,-7.51
2023-02-09T00:34:46.388Z,-7.54
2023-02-09T00:37:14.359Z,-7.51
2023-02-09T00:39:42.302Z,-7.49
2023-02-09T00:42:11.342Z,-7.47
2023-02-09T00:44:40.429Z,-7.46
2023-02-09T00:47:09.269Z,-7.45
2023-02-09T00:49:37.482Z,-7.49
2023-02-09T00:52:05.514Z,-7.54
2023-02-09T00:54:33.516Z,-7.57
2023-02-09T00:57:05.405Z,-7.58
2023-02-09T00:59:35.829Z,-7.62
2023-02-09T01:02:04.018Z,-7.67
2023-02-09T01:04:32.448Z,-7.69
2023-02-09T01:07:00.537Z,-7.73
2023-02-09T01:09:28.952Z,-7.74
2023-02-09T01:11:56.867Z,-7.81
2023-02-09T01:14:24.934Z,-7.89
2023-02-09T01:16:53.003Z,-7.94
2023-02-09T01:19:20.963Z,-7.99
2023-02-09T01:21:49.349Z,-8.03
2023-02-09T01:24:17.472Z,-8.06
2023-02-09T01:26:45.460Z,-8.08
2023-02-09T01:29:15.364Z,-8.10
2023-02-09T01:31:43.890Z,-8.08
2023-02-09T01:34:14.965Z,-8.07
2023-02-09T01:36:43.467Z,-8.02
2023-02-09T01:39:13.181Z,-7.99
2023-02-09T01:41:41.839Z,-7.97
2023-02-09T01:44:11.389Z,-7.92
2023-02-09T01:46:39.782Z,-7.89
2023-02-09T01:49:12.695Z,-7.88
2023-02-09T01:52:01.074Z,-7.89
2023-02-09T01:54:38.311Z,-7.97
2023-02-09T01:57:11.188Z,-8.03
2023-02-09T01:59:42.676Z,-8.06
2023-02-09T02:02:11.670Z,-8.10
2023-02-09T02:04:41.984Z,-8.12
2023-02-09T02:07:16.638Z,-8.11
2023-02-09T02:09:46.526Z,-8.11
2023-02-09T02:12:14.476Z,-8.12
2023-02-09T02:14:42.779Z,-8.18
2023-02-09T02:17:38.198Z,-8.22
2023-02-09T02:20:48.395Z,-8.20
2023-02-09T02:23:34.880Z,-8.17
2023-02-09T02:26:23.626Z,-8.13
2023-02-09T02:29:36.254Z,-8.09
2023-02-09T02:32:36.481Z,-8.09
2023-02-09T02:35:18.582Z,-8.15
2023-02-09T02:38:17.609Z,-8.15
2023-02-09T02:40:58.601Z,-8.17
2023-02-09T02:43:32.800Z,-8.24
2023-02-09T02:46:05.972Z,-8.25
2023-02-09T02:48:51.567Z,-8.26
2023-02-09T02:51:42.760Z,-8.32
2023-02-09T02:54:18.502Z,-8.34
2023-02-09T02:56:52.239Z,-8.38
2023-02-09T02:59:28.849Z,-8.40
2023-02-09T03:02:20.316Z,-8.41
2023-02-09T03:04:52.915Z,-8.41
2023-02-09T03:07:21.043Z,-8.42
2023-02-09T03:09:51.003Z,-8.43
2023-02-09T03:12:31.142Z,-8.40
2023-02-09T03:15:22.043Z,-8.37
2023-02-09T03:18:08.815Z,-8.45
2023-02-09T03:21:11.219Z,-8.58
2023-02-09T03:24:18.006Z,-8.67
2023-02-09T03:26:51.916Z,-8.76
2023-02-09T03:29:23.753Z,-8.77
2023-02-09T03:31:52.329Z,-8.75
2023-02-09T03:34:20.495Z,-8.73
2023-02-09T03:36:56.271Z,-8.77
2023-02-09T03:39:24.592Z,-8.79
2023-02-09T03:41:52.510Z,-8.80
2023-02-09T03:44:26.655Z,-8.80
2023-02-09T03:47:03.491Z,-8.82
2023-02-09T03:49:36.601Z,-8.85
2023-02-09T03:52:05.987Z,-8.87
2023-02-09T03:54:34.016Z,-8.90
2023-02-09T03:57:02.046Z,-8.93
2023-02-09T03:59:30.533Z,-8.95
2023-02-09T04:01:59.126Z,-8.95
2023-02-09T04:04:27.512Z,-8.97
2023-02-09T04:06:56.378Z,-9.01
2023-02-09T04:09:26.399Z,-9.05
2023-02-09T04:11:54.778Z,-9.08
2023-02-09T04:14:23.233Z,-9.14
2023-02-09T04:16:51.172Z,-9.19
2023-02-09T04:19:19.117Z,-9.24
2023-02-09T04:21:47.045Z,-9.31
2023-02-09T04:24:15.086Z,-9.38
2023-02-09T04:26:43.114Z,-9.41
2023-02-09T04:29:11.103Z,-9.40
2023-02-09T04:31:39.253Z,-9.38
2023-02-09T04:34:07.310Z,-9.38
2023-02-09T04:36:35.197Z,-9.39
2023-02-09T04:39:03.417Z,-9.39
2023-02-09T04:41:31.398Z,-9.38
2023-02-09T04:43:59.914Z,-9.41
2023-02-09T04:46:27.928Z,-9.41
2023-02-09T04:48:55.889Z,-9.40
2023-02-09T04:51:23.858Z,-9.40
2023-02-09T04:53:51.923Z,-9.43
2023-02-09T04:56:19.902Z,-9.45
2023-02-09T04:59:06.504Z,-9.50
2023-02-09T05:01:34.549Z,-9.56
2023-02-09T05:04:02.693Z,-9.57
2023-02-09T05:06:30.796Z,-9.54
2023-02-09T05:08:58.925Z,-9.56
2023-02-09T05:11:26.898Z,-9.62
2023-02-09T05:13:56.224Z,-9.67
2023-02-09T05:16:24.312Z,-9.65
2023-02-09T05:18:52.327Z,-9.63
2023-02-09T05:21:20.312Z,-9.61
2023-02-09T05:23:48.528Z,-9.57
2023-02-09T05:26:16.803Z,-9.58
2023-02-09T05:28:45.344Z,-9.60
2023-02-09T05:31:13.379Z,-9.66
2023-02-09T05:33:41.368Z,-9.68
2023-02-09T05:36:09.878Z,-9.68
2023-02-09T05:38:38.983Z,-9.73
2023-02-09T05:41:09.386Z,-9.76
2023-02-09T05:43:38.148Z,-9.78
2023-02-09T05:46:08.248Z,-9.75
2023-02-09T05:48:36.614Z,-9.78
2023-02-09T05:51:04.962Z,-9.77
2023-02-09T05:53:32.848Z,-9.76
2023-02-09T05:56:00.852Z,-9.78
2023-02-09T05:58:28.804Z,-9.79
2023-02-09T06:00:56.809Z,-9.76
2023-02-09T06:03:24.904Z,-9.74
2023-02-09T06:05:52.891Z,-9.71
2023-02-09T06:08:20.864Z,-9.66
2023-02-09T06:10:48.770Z,-9.60
2023-02-09T06:13:16.817Z,-9.56
2023-02-09T06:15:44.875Z,-9.53
2023-02-09T06:18:12.900Z,-9.55
2023-02-09T06:20:40.901Z,-9.48
2023-02-09T06:23:08.893Z,-9.41
2023-02-09T06:25:41.751Z,-9.33
2023-02-09T06:28:09.713Z,-9.31
2023-02-09T06:30:37.775Z,-9.37
2023-02-09T06:33:05.953Z,-9.41
2023-02-09T06:35:34.010Z,-9.45
2023-02-09T06:38:01.958Z,-9.42
2023-02-09T06:40:30.147Z,-9.40
2023-02-09T06:42:58.885Z,-9.36
2023-02-09T06:45:26.948Z,-9.26
2023-02-09T06:47:55.102Z,-9.15
2023-02-09T06:50:23.388Z,-9.01
2023-02-09T06:52:54.587Z,-8.87
2023-02-09T06:55:23.863Z,-8.76
2023-02-09T06:57:52.225Z,-8.62
2023-02-09T07:00:22.652Z,-8.44
2023-02-09T07:02:51.698Z,-8.33
2023-02-09T07:05:20.701Z,-8.25
2023-02-09T07:07:48.697Z,-8.21
2023-02-09T07:10:18.260Z,-8.14
2023-02-09T07:15:34.759Z,-8.00
2023-02-09T07:18:04.183Z,-7.98
2023-02-09T07:20:32.279Z,-7.91
2023-02-09T07:23:01.740Z,-7.79
2023-02-09T07:25:29.996Z,-7.80
2023-02-09T07:27:59.131Z,-7.79
2023-02-09T07:30:28.436Z,-7.81
2023-02-09T07:32:59.535Z,-7.77
2023-02-09T07:35:27.524Z,-7.75
2023-02-09T07:37:56.062Z,-7.76
2023-02-09T07:40:24.688Z,-7.74
2023-02-09T07:42:53.057Z,-7.67
2023-02-09T07:45:21.016Z,-7.61
2023-02-09T07:47:49.434Z,-7.53
2023-02-09T07:50:19.147Z,-7.41
2023-02-09T07:52:48.183Z,-7.18
2023-02-09T07:55:16.544Z,-6.91
2023-02-09T07:57:44.513Z,-6.73
2023-02-09T08:00:13.501Z,-6.63
2023-02-09T08:02:45.211Z,-6.49
2023-02-09T08:05:20.710Z,-6.42
2023-02-09T08:07:48.768Z,-6.35
2023-02-09T08:10:19.072Z,-6.34
2023-02-09T08:13:00.170Z,-6.31
2023-02-09T08:15:43.049Z,-6.28
2023-02-09T08:18:17.539Z,-6.20
2023-02-09T08:20:47.724Z,-6.09
2023-02-09T08:23:22.802Z,-5.95
2023-02-09T08:26:00.237Z,-5.85
2023-02-09T08:28:42.897Z,-5.75
2023-02-09T08:31:14.244Z,-5.58
2023-02-09T08:33:43.611Z,-5.43
2023-02-09T08:36:13.486Z,-5.34
2023-02-09T08:38:41.590Z,-5.23
2023-02-09T08:41:12.561Z,-5.16
2023-02-09T08:43:41.123Z,-5.11
2023-02-09T08:46:12.930Z,-5.12
2023-02-09T08:48:43.471Z,-5.05
2023-02-09T08:51:13.773Z,-4.96
2023-02-09T08:53:43.421Z,-4.86
2023-02-09T08:56:11.650Z,-4.77
2023-02-09T08:58:39.780Z,-4.64
2023-02-09T09:01:07.988Z,-4.54
2023-02-09T09:03:36.346Z,-4.30
2023-02-09T09:06:06.627Z,-4.12
2023-02-09T09:08:36.235Z,-4.05
2023-02-09T09:11:06.330Z,-4.01
2023-02-09T09:13:34.414Z,-3.99
2023-02-09T09:16:04.871Z,-4.02
2023-02-09T09:18:33.659Z,-4.06
2023-02-09T09:21:02.228Z,-4.08
2023-02-09T09:23:30.168Z,-4.06
2023-02-09T09:26:03.358Z,-4.01
2023-02-09T09:28:31.787Z,-3.95
2023-02-09T09:31:05.828Z,-3.95
2023-02-09T09:33:33.798Z,-3.94
2023-02-09T09:36:03.164Z,-3.82
2023-02-09T09:38:31.177Z,-3.75
2023-02-09T09:40:59.032Z,-3.70
2023-02-09T09:43:39.886Z,-3.66
2023-02-09T09:46:15.260Z,-3.53
2023-02-09T09:48:52.519Z,-3.43
2023-02-09T09:51:34.848Z,-3.35
2023-02-09T09:54:06.342Z,-3.24
2023-02-09T09:56:34.519Z,-3.14
2023-02-09T09:59:02.639Z,-3.05
2023-02-09T10:01:33.015Z,-2.97
2023-02-09T10:04:13.429Z,-2.94
2023-02-09T10:06:44.486Z,-2.93
2023-02-09T10:09:21.307Z,-2.81
2023-02-09T10:12:05.882Z,-2.65
2023-02-09T10:14:33.860Z,-2.56
2023-02-09T10:17:02.301Z,-2.47
2023-02-09T10:19:30.514Z,-2.30
2023-02-09T10:21:58.804Z,-2.10
2023-02-09T10:24:29.619Z,-1.94
2023-02-09T10:27:06.073Z,-1.81
2023-02-09T10:29:35.510Z,-1.70
2023-02-09T10:32:23.750Z,-1.56
2023-02-09T10:34:54.981Z,-1.44
2023-02-09T10:37:43.882Z,-1.40
2023-02-09T10:40:22.476Z,-1.33
2023-02-09T10:43:02.602Z,-1.25
2023-02-09T10:45:42.742Z,-1.19
2023-02-09T10:48:13.438Z,-1.02
2023-02-09T10:50:53.302Z,-0.89
2023-02-09T10:53:24.718Z,-0.76
2023-02-09T10:56:05.170Z,-0.61
2023-02-09T10:58:36.310Z,-0.45
2023-02-09T11:01:24.360Z,-0.30
2023-02-09T11:04:04.933Z,-0.15
2023-02-09T11:06:46.997Z,-0.07
2023-02-09T11:09:30.885Z,-0.04
2023-02-09T11:11:59.167Z,0.05
2023-02-09T11:14:27.868Z,0.14
2023-02-09T11:17:01.968Z,0.20
2023-02-09T11:19:41.958Z,0.29
2023-02-09T11:22:16.490Z,0.49
2023-02-09T11:24:59.544Z,0.72
2023-02-09T11:27:49.205Z,0.87
2023-02-09T11:30:36.586Z,1.00
2023-02-09T11:33:31.480Z,0.95
2023-02-09T11:36:05.421Z,0.82
2023-02-09T11:38:51.419Z,0.98
2023-02-09T11:41:47.339Z,1.18
2023-02-09T11:44:25.805Z,1.35
2023-02-09T11:47:05.709Z,1.47
2023-02-09T11:49:53.889Z,1.64
2023-02-09T11:52:29.929Z,1.72
2023-02-09T11:55:02.703Z,1.81
2023-02-09T11:57:40.596Z,2.00
2023-02-09T12:00:18.215Z,2.11
2023-02-09T12:03:04.685Z,2.05
2023-02-09T12:05:33.316Z,2.05
2023-02-09T12:08:22.442Z,2.17
2023-02-09T12:11:12.775Z,2.25
2023-02-09T12:14:11.868Z,2.41
2023-02-09T12:16:44.230Z,2.43
2023-02-09T12:19:33.851Z,2.39
2023-02-09T12:22:43.038Z,2.44
2023-02-09T12:25:17.100Z,2.46
2023-02-09T12:28:18.014Z,2.48
2023-02-09T12:30:46.174Z,2.49
2023-02-09T12:33:18.777Z,2.49
2023-02-09T12:36:16.182Z,2.49
2023-02-09T12:38:49.519Z,2.50
2023-02-09T12:41:20.919Z,2.46
2023-02-09T12:43:50.815Z,2.49
2023-02-09T12:46:22.067Z,2.45
2023-02-09T12:49:08.934Z,2.41
2023-02-09T12:52:03.026Z,2.34
2023-02-09T12:54:39.559Z,2.34
2023-02-09T12:57:17.026Z,2.31
2023-02-09T12:59:53.309Z,2.27
2023-02-09T13:02:30.396Z,2.25
2023-02-09T13:05:11.453Z,2.25
2023-02-09T13:07:54.267Z,2.25
2023-02-09T13:10:34.004Z,2.26
2023-02-09T13:13:11.319Z,2.21
2023-02-09T13:16:09.979Z,2.14
2023-02-09T13:19:07.688Z,2.09
2023-02-09T13:22:03.697Z,2.07
2023-02-09T13:25:00.875Z,2.05
2023-02-09T13:27:30.204Z,2.07
2023-02-09T13:29:59.914Z,2.05
2023-02-09T13:33:03.198Z,2.03
2023-02-09T13:35:38.305Z,2.01
2023-02-09T13:38:30.185Z,2.00
2023-02-09T13:40:58.564Z,1.97
2023-02-09T13:43:36.911Z,1.99
2023-02-09T13:46:06.014Z,1.99
2023-02-09T13:48:37.595Z,1.93
2023-02-09T13:51:21.280Z,1.87
2023-02-09T13:54:01.201Z,1.85
2023-02-09T13:56:31.731Z,1.90
2023-02-09T13:59:00.458Z,1.96
2023-02-09T14:01:32.762Z,1.89
2023-02-09T14:04:07.128Z,1.69
2023-02-09T14:06:52.047Z,1.48
2023-02-09T14:09:28.777Z,1.37
2023-02-09T14:12:02.143Z,1.29
2023-02-09T14:15:02.740Z,1.18
2023-02-09T14:17:35.044Z,1.07
2023-02-09T14:20:04.324Z,0.98
2023-02-09T14:22:38.150Z,0.91
2023-02-09T14:25:15.316Z,0.83
2023-02-09T14:27:47.888Z,0.73
2023-02-09T14:30:17.345Z,0.59
2023-02-09T14:32:48.309Z,0.41
2023-02-09T14:35:17.455Z,0.25
2023-02-09T14:37:46.211Z,0.12
2023-02-09T14:40:28.457Z,0.02
2023-02-09T14:43:07.106Z,-0.10
2023-02-09T14:45:37.616Z,-0.21
2023-02-09T14:48:41.008Z,-0.33
2023-02-09T14:51:15.519Z,-0.49
2023-02-09T14:53:44.229Z,-0.63
2023-02-09T14:56:30.878Z,-0.78
2023-02-09T14:58:58.897Z,-0.95
2023-02-09T15:01:26.884Z,-1.11
2023-02-09T15:03:55.060Z,-1.27
2023-02-09T15:06:23.887Z,-1.40
2023-02-09T15:08:51.920Z,-1.52
2023-02-09T15:11:42.746Z,-1.62
2023-02-09T15:14:11.765Z,-1.74
2023-02-09T15:16:39.850Z,-1.86
2023-02-09T15:19:15.145Z,-1.98
2023-02-09T15:21:43.075Z,-2.10
2023-02-09T15:24:11.094Z,-2.21
2023-02-09T15:26:39.544Z,-2.32
2023-02-09T15:29:15.895Z,-2.41
2023-02-09T15:31:43.934Z,-2.48
2023-02-09T15:34:14.018Z,-2.58
2023-02-09T15:36:42.747Z,-2.70
2023-02-09T15:39:18.727Z,-2.80
2023-02-09T15:42:05.489Z,-2.91
2023-02-09T15:44:52.086Z,-3.00
2023-02-09T15:47:39.118Z,-3.12
2023-02-09T15:50:07.402Z,-3.23
2023-02-09T15:52:35.460Z,-3.32
2023-02-09T15:55:03.738Z,-3.39
2023-02-09T15:57:31.875Z,-3.45
2023-02-09T15:59:59.730Z,-3.54
2023-02-09T16:02:27.832Z,-3.65
2023-02-09T16:04:55.929Z,-3.76
2023-02-09T16:07:26.252Z,-3.82
2023-02-09T16:09:54.284Z,-3.89
2023-02-09T16:12:22.285Z,-3.96
2023-02-09T16:14:52.337Z,-4.00
2023-02-09T16:17:21.280Z,-4.06
2023-02-09T16:19:49.364Z,-4.12
2023-02-09T16:22:17.463Z,-4.16
2023-02-09T16:24:46.369Z,-4.23
2023-02-09T16:27:29.726Z,-4.28
2023-02-09T16:29:58.892Z,-4.30
2023-02-09T16:32:28.746Z,-4.30
2023-02-09T16:35:07.342Z,-4.31
2023-02-09T16:37:36.322Z,-4.34
2023-02-09T16:40:14.904Z,-4.37
2023-02-09T16:42:44.063Z,-4.41
2023-02-09T16:45:13.582Z,-4.43
2023-02-09T16:47:45.699Z,-4.47
2023-02-09T16:50:21.963Z,-4.51
2023-02-09T16:52:52.721Z,-4.57
2023-02-09T16:55:34.938Z,-4.64
2023-02-09T16:58:04.920Z,-4.70
2023-02-09T17:00:37.038Z,-4.75
2023-02-09T17:03:27.895Z,-4.81
2023-02-09T17:05:57.438Z,-4.87
2023-02-09T17:08:32.004Z,-4.92
2023-02-09T17:11:02.604Z,-4.96
2023-02-09T17:13:31.437Z,-5.01
2023-02-09T17:16:02.430Z,-5.05
2023-02-09T17:18:39.181Z,-5.10
2023-02-09T17:21:09.988Z,-5.17
2023-02-09T17:23:37.969Z,-5.21
2023-02-09T17:26:06.002Z,-5.25
2023-02-09T17:28:34.510Z,-5.30
2023-02-09T17:31:11.594Z,-5.36
2023-02-09T17:33:39.647Z,-5.40
2023-02-09T17:36:25.976Z,-5.43
2023-02-09T17:38:57.758Z,-5.44
2023-02-09T17:41:33.663Z,-5.45
2023-02-09T17:44:26.492Z,-5.46
2023-02-09T17:47:03.817Z,-5.48
2023-02-09T17:49:32.224Z,-5.51
2023-02-09T17:52:00.326Z,-5.52
2023-02-09T17:54:28.369Z,-5.53
2023-02-09T17:56:56.344Z,-5.54
2023-02-09T17:59:24.483Z,-5.54
2023-02-09T18:01:55.696Z,-5.55
2023-02-09T18:04:27.720Z,-5.52
2023-02-09T18:06:57.755Z,-5.46
2023-02-09T18:09:26.038Z,-5.48
2023-02-09T18:12:02.208Z,-5.55
2023-02-09T18:14:33.581Z,-5.61
2023-02-09T18:17:01.934Z,-5.64
2023-02-09T18:19:30.188Z,-5.68
2023-02-09T18:22:00.458Z,-5.69
2023-02-09T18:24:31.829Z,-5.71
2023-02-09T18:27:00.108Z,-5.72
2023-02-09T18:29:31.005Z,-5.73
2023-02-09T18:32:01.405Z,-5.77
2023-02-09T18:34:30.199Z,-5.84
2023-02-09T18:36:58.789Z,-5.87
2023-02-09T18:39:26.866Z,-5.86
2023-02-09T18:41:55.256Z,-5.90
2023-02-09T18:44:29.186Z,-5.90
2023-02-09T18:47:00.700Z,-5.89
2023-02-09T18:49:29.921Z,-5.90
2023-02-09T18:51:59.339Z,-5.93
2023-02-09T18:54:29.109Z,-5.97
2023-02-09T18:56:57.282Z,-6.01
2023-02-09T18:59:30.411Z,-6.04
2023-02-09T19:01:59.610Z,-6.08
2023-02-09T19:04:27.845Z,-6.14
2023-02-09T19:06:56.025Z,-6.21
2023-02-09T19:09:24.072Z,-6.29
2023-02-09T19:11:52.068Z,-6.37
2023-02-09T19:14:38.321Z,-6.47
2023-02-09T19:17:08.880Z,-6.56
2023-02-09T19:19:38.912Z,-6.64
2023-02-09T19:22:07.897Z,-6.72
2023-02-09T19:24:36.343Z,-6.78
2023-02-09T19:27:06.816Z,-6.83
2023-02-09T19:29:37.402Z,-6.87
2023-02-09T19:32:06.151Z,-6.91
2023-02-09T19:34:38.779Z,-6.94
2023-02-09T19:37:08.506Z,-6.97
2023-02-09T19:39:38.632Z,-6.96
2023-02-09T19:42:07.798Z,-6.96
2023-02-09T19:44:36.361Z,-6.95
2023-02-09T19:47:04.525Z,-6.93
2023-02-09T19:49:34.297Z,-6.91
2023-02-09T19:52:02.657Z,-6.90
2023-02-09T19:54:31.306Z,-6.88
2023-02-09T19:56:59.863Z,-6.86
2023-02-09T19:59:27.798Z,-6.82
2023-02-09T20:01:55.783Z,-6.77
2023-02-09T20:04:23.974Z,-6.73
2023-02-09T20:06:52.179Z,-6.72
2023-02-09T20:09:20.232Z,-6.75
2023-02-09T20:14:17.332Z,-6.80
2023-02-09T20:16:45.421Z,-6.86
2023-02-09T20:19:13.652Z,-6.89
2023-02-09T20:21:43.124Z,-6.88
2023-02-09T20:24:12.356Z,-6.92
2023-02-09T20:26:41.672Z,-6.97
2023-02-09T20:29:11.467Z,-7.00
2023-02-09T20:31:41.767Z,-7.04
2023-02-09T20:34:13.262Z,-7.11
2023-02-09T20:36:45.233Z,-7.16
2023-02-09T20:39:16.366Z,-7.18
2023-02-09T20:42:08.561Z,-7.23
2023-02-09T20:44:56.037Z,-7.27
2023-02-09T20:47:27.059Z,-7.31
2023-02-09T20:50:00.541Z,-7.33
2023-02-09T20:52:29.975Z,-7.34
2023-02-09T20:54:58.185Z,-7.32
2023-02-09T20:57:29.684Z,-7.33
2023-02-09T21:00:01.659Z,-7.40
2023-02-09T21:02:29.907Z,-7.48
2023-02-09T21:04:58.137Z,-7.56
2023-02-09T21:07:26.225Z,-7.57
2023-02-09T21:09:55.889Z,-7.55
2023-02-09T21:12:24.196Z,-7.55
2023-02-09T21:14:53.435Z,-7.55
2023-02-09T21:17:21.368Z,-7.50
2023-02-09T21:19:49.357Z,-7.48
2023-02-09T21:22:17.611Z,-7.47
2023-02-09T21:24:45.612Z,-7.52
2023-02-09T21:27:14.228Z,-7.58
2023-02-09T21:29:42.196Z,-7.60
2023-02-09T21:32:11.293Z,-7.57
2023-02-09T21:34:41.979Z,-7.63
2023-02-09T21:37:12.992Z,-7.72
2023-02-09T21:39:41.240Z,-7.80
2023-02-09T21:42:29.692Z,-7.86
2023-02-09T21:44:58.759Z,-7.87
2023-02-09T21:47:32.038Z,-7.86
2023-02-09T21:50:00.339Z,-7.86
2023-02-09T21:52:29.948Z,-7.89
2023-02-09T21:54:58.679Z,-7.91
2023-02-09T21:57:26.804Z,-7.87
2023-02-09T21:59:55.381Z,-7.82
2023-02-09T22:02:23.330Z,-7.77
2023-02-09T22:04:52.148Z,-7.72
2023-02-09T22:07:20.070Z,-7.73
2023-02-09T22:09:47.968Z,-7.77
2023-02-09T22:12:15.867Z,-7.77
2023-02-09T22:14:43.728Z,-7.79
2023-02-09T22:17:11.658Z,-7.84
2023-02-09T22:19:39.585Z,-7.89
2023-02-09T22:22:07.650Z,-7.94
2023-02-09T22:24:35.753Z,-7.96
2023-02-09T22:27:04.482Z,-7.94
2023-02-09T22:29:35.605Z,-7.91
2023-02-09T22:32:03.690Z,-7.92
2023-02-09T22:34:31.707Z,-7.89
2023-02-09T22:36:59.612Z,-7.84
2023-02-09T22:39:27.523Z,-7.81
2023-02-09T22:41:58.152Z,-7.77
2023-02-09T22:44:28.029Z,-7.76
2023-02-09T22:46:56.919Z,-7.77
2023-02-09T22:49:24.975Z,-7.80
2023-02-09T22:51:52.934Z,-7.79
2023-02-09T22:54:21.286Z,-7.77
2023-02-09T22:56:49.477Z,-7.77
2023-02-09T22:59:17.583Z,-7.86
2023-02-09T23:01:45.744Z,-8.00
2023-02-09T23:04:13.821Z,-8.14
2023-02-09T23:06:41.886Z,-8.18
2023-02-09T23:09:12.469Z,-8.17
2023-02-09T23:11:41.078Z,-8.14
2023-02-09T23:14:11.262Z,-8.14
2023-02-09T23:16:41.838Z,-8.15
2023-02-09T23:19:13.743Z,-8.18
2023-02-09T23:21:44.553Z,-8.23
2023-02-09T23:24:14.957Z,-8.31
2023-02-09T23:26:43.545Z,-8.39
2023-02-09T23:29:13.952Z,-8.44
2023-02-09T23:31:43.115Z,-8.50
2023-02-09T23:34:16.760Z,-8.52
2023-02-09T23:36:45.123Z,-8.49
2023-02-09T23:39:15.513Z,-8.46
2023-02-09T23:41:43.611Z,-8.45
2023-02-09T23:44:11.689Z,-8.42
2023-02-09T23:46:40.021Z,-8.38
2023-02-09T23:49:08.152Z,-8.33
2023-02-09T23:51:37.374Z,-8.25
2023-02-09T23:54:07.281Z,-8.23
2023-02-09T23:56:38.136Z,-8.25
2023-02-09T23:59:09.208Z,-8.29
